Time;durP1;ratioP1;P1;durP2;ratioP2;P2;SDS_P1;SDS_P2;PMS_P1;PMS_P2;Temp;Humidity;BMP_temperature;BMP_pressure;BME280_temperature;BME280_humidity;BME280_pressure;Samples;Min_cycle;Max_cycle;Signal;HPM_P1;HPM_P2
2022/05/08 00:01:13;;;;;;;;;;;;;;;17.29;55.62;97127.78;4232554;27;5699;-67
2022/05/08 00:03:15;;;;;;;;;;;;;;;17.29;55.82;97117.91;4232573;28;5706;-67
2022/05/08 00:05:18;;;;;;;;;;;;;;;17.28;55.75;97116.28;4236735;28;5686;-67
2022/05/08 00:07:21;;;;;;;;;;;;;;;17.27;55.87;97120.00;4235246;28;5671;-67
2022/05/08 00:09:23;;;;;;;;;;;;;;;17.27;55.84;97113.84;4233375;27;5818;-67
2022/05/08 00:11:24;;;;;;;;;;;;;;;17.29;55.94;97122.44;4229939;28;5638;-67
2022/05/08 00:13:26;;;;;;;;;;;;;;;17.30;56.09;97114.19;4222077;27;6421;-67
2022/05/08 00:15:28;;;;;;;;;;;;;;;17.28;56.24;97113.59;4218665;28;5759;-67
2022/05/08 00:17:34;;;;;;;;;;;;;;;17.27;56.24;97114.66;4236265;27;5630;-67
2022/05/08 00:19:44;;;;;;;;;;;;;;;17.26;56.16;97117.56;4236629;27;5646;-67
2022/05/08 00:21:46;;;;;;;;;;;;;;;17.24;56.32;97117.78;4235733;27;5901;-67
2022/05/08 00:23:47;;;;;;;;;;;;;;;17.22;56.26;97114.53;4234692;28;5817;-67
2022/05/08 00:25:49;;;;;;;;;;;;;;;17.21;56.25;97114.72;4236423;28;5732;-67
2022/05/08 00:27:50;;;;;;;;;;;;;;;17.18;56.60;97111.47;4225844;28;5683;-66
2022/05/08 00:29:52;;;;;;;;;;;;;;;17.16;56.51;97113.56;4218284;28;6345;-67
2022/05/08 00:31:54;;;;;;;;;;;;;;;17.16;56.65;97118.09;4218146;28;5684;-67
2022/05/08 00:33:56;;;;;;;;;;;;;;;17.16;56.52;97118.91;4225441;28;5793;-67
2022/05/08 00:35:57;;;;;;;;;;;;;;;17.16;56.74;97112.75;4236041;28;5650;-67
2022/05/08 00:37:59;;;;;;;;;;;;;;;17.15;56.74;97113.78;4220213;27;5663;-67
2022/05/08 00:40:00;;;;;;;;;;;;;;;17.12;57.02;97112.41;4218066;28;5667;-67
2022/05/08 00:42:03;;;;;;;;;;;;;;;17.13;56.81;97113.22;4223829;28;5867;-67
2022/05/08 00:44:05;;;;;;;;;;;;;;;17.12;56.87;97107.06;4234076;27;5646;-66
2022/05/08 00:46:10;;;;;;;;;;;;;;;17.11;57.00;97105.44;4234362;28;5650;-67
2022/05/08 00:48:11;;;;;;;;;;;;;;;17.10;56.90;97102.97;4236043;27;5829;-67
2022/05/08 00:50:13;;;;;;;;;;;;;;;17.08;57.10;97099.69;4234271;28;7651;-67
2022/05/08 00:52:16;;;;;;;;;;;;;;;17.04;57.14;97098.53;4235624;28;5643;-66
2022/05/08 00:54:18;;;;;;;;;;;;;;;17.02;57.40;97103.28;4234322;27;5657;-67
2022/05/08 00:56:20;;;;;;;;;;;;;;;17.01;57.22;97099.00;4236032;27;5662;-67
2022/05/08 00:58:22;;;;;;;;;;;;;;;17.00;57.49;97098.19;4235641;27;5762;-67
2022/05/08 01:00:26;;;;;;;;;;;;;;;17.00;57.40;97094.69;4235686;28;5792;-67
2022/05/08 01:02:28;;;;;;;;;;;;;;;17.00;57.52;97095.50;4227299;28;5662;-67
2022/05/08 01:04:30;;;;;;;;;;;;;;;16.99;57.57;97090.38;4235652;27;5674;-67
2022/05/08 01:06:32;;;;;;;;;;;;;;;16.97;57.60;97093.28;4233942;28;5721;-67
2022/05/08 01:08:40;;;;;;;;;;;;;;;16.95;57.78;97081.19;4235297;27;5768;-66
2022/05/08 01:10:41;;;;;;;;;;;;;;;16.95;57.90;97083.88;4234576;28;5650;-66
2022/05/08 01:12:45;;;;;;;;;;;;;;;16.95;57.88;97092.69;4235145;27;5737;-66
2022/05/08 01:15:14;;;;;;;;;;;;;;;16.94;57.98;97090.25;4235331;28;5733;-66
2022/05/08 01:17:15;;;;;;;;;;;;;;;16.91;58.03;97083.50;4234384;27;5654;-66
2022/05/08 01:19:17;;;;;;;;;;;;;;;16.91;58.20;97077.34;4234373;28;6065;-66
2022/05/08 01:21:29;;;;;;;;;;;;;;;16.90;58.19;97079.22;4234150;28;5654;-67
2022/05/08 01:23:31;;;;;;;;;;;;;;;16.89;58.18;97085.59;4233368;28;5741;-66
2022/05/08 01:25:44;;;;;;;;;;;;;;;16.88;58.19;97082.13;4234695;27;5725;-67
2022/05/08 01:27:45;;;;;;;;;;;;;;;16.87;58.20;97093.84;4218070;28;5667;-67
2022/05/08 01:29:47;;;;;;;;;;;;;;;16.82;58.33;97080.34;4221096;28;5768;-67
2022/05/08 01:31:48;;;;;;;;;;;;;;;16.81;58.42;97089.38;4233104;28;5736;-66
2022/05/08 01:33:50;;;;;;;;;;;;;;;16.79;58.53;97091.47;4228241;28;5671;-66
2022/05/08 01:35:52;;;;;;;;;;;;;;;16.77;58.72;97082.88;4218177;28;5652;-66
2022/05/08 01:37:54;;;;;;;;;;;;;;;16.75;58.58;97084.94;4218165;28;5802;-66
2022/05/08 01:39:56;;;;;;;;;;;;;;;16.75;58.72;97078.78;4217029;28;5674;-66
2022/05/08 01:41:58;;;;;;;;;;;;;;;16.74;58.78;97083.31;4220580;28;5806;-66
2022/05/08 01:44:00;;;;;;;;;;;;;;;16.73;58.83;97081.69;4235407;28;5650;-66
2022/05/08 01:46:03;;;;;;;;;;;;;;;16.72;58.75;97085.38;4234138;27;5638;-66
2022/05/08 01:48:25;;;;;;;;;;;;;;;16.69;59.19;97088.50;4235242;27;5646;-66
2022/05/08 01:50:27;;;;;;;;;;;;;;;16.66;59.29;97090.78;4235066;28;5713;-66
2022/05/08 01:52:29;;;;;;;;;;;;;;;16.63;59.44;97091.22;4234057;27;5642;-66
2022/05/08 01:54:30;;;;;;;;;;;;;;;16.61;59.44;97091.44;4222683;28;5678;-66
2022/05/08 01:56:32;;;;;;;;;;;;;;;16.62;59.56;97093.06;4218136;28;5198;-66
2022/05/08 01:58:34;;;;;;;;;;;;;;;16.58;59.57;97089.25;4218239;28;5687;-66
2022/05/08 02:00:36;;;;;;;;;;;;;;;16.57;59.54;97083.09;4227656;28;5768;-66
2022/05/08 02:02:37;;;;;;;;;;;;;;;16.56;59.75;97085.97;4227917;28;5725;-66
2022/05/08 02:04:40;;;;;;;;;;;;;;;16.53;59.90;97092.56;4231940;27;5665;-66
2022/05/08 02:06:42;;;;;;;;;;;;;;;16.52;59.75;97090.13;4233934;28;5729;-66
2022/05/08 02:08:44;;;;;;;;;;;;;;;16.49;59.97;97085.22;4234553;27;5701;-65
2022/05/08 02:10:46;;;;;;;;;;;;;;;16.46;60.16;97088.34;4223024;28;5675;-66
2022/05/08 02:12:47;;;;;;;;;;;;;;;16.47;60.10;97092.66;4217970;28;5755;-65
2022/05/08 02:14:49;;;;;;;;;;;;;;;16.47;60.13;97092.66;4220807;28;5853;-66
2022/05/08 02:16:50;;;;;;;;;;;;;;;16.46;60.21;97091.03;4234611;28;6429;-65
2022/05/08 02:18:52;;;;;;;;;;;;;;;16.44;60.04;97087.78;4234573;27;5748;-66
2022/05/08 02:20:54;;;;;;;;;;;;;;;16.43;60.39;97086.97;4234476;27;5642;-66
2022/05/08 02:22:56;;;;;;;;;;;;;;;16.41;60.33;97088.19;4234005;27;6426;-66
2022/05/08 02:24:58;;;;;;;;;;;;;;;16.41;60.26;97086.34;4234620;27;5650;-66
2022/05/08 02:26:59;;;;;;;;;;;;;;;16.40;60.45;97084.72;4234252;27;5734;-66
2022/05/08 02:29:01;;;;;;;;;;;;;;;16.40;60.17;97087.38;4234767;28;5665;-66
2022/05/08 02:31:03;;;;;;;;;;;;;;;16.38;60.48;97093.97;4234061;28;5757;-66
2022/05/08 02:33:04;;;;;;;;;;;;;;;16.36;60.37;97088.06;4234082;28;5662;-66
2022/05/08 02:35:09;;;;;;;;;;;;;;;16.33;60.43;97085.84;4234311;27;6331;-66
2022/05/08 02:37:11;;;;;;;;;;;;;;;16.32;60.48;97087.69;4234377;28;5654;-66
2022/05/08 02:39:13;;;;;;;;;;;;;;;16.32;60.67;97086.88;4237735;27;5725;-66
2022/05/08 02:41:14;;;;;;;;;;;;;;;16.33;60.79;97088.50;4236838;28;5662;-66
2022/05/08 02:43:18;;;;;;;;;;;;;;;16.32;60.61;97090.38;4237554;28;5665;-66
2022/05/08 02:45:20;;;;;;;;;;;;;;;16.34;60.89;97092.81;4237692;27;5643;-66
2022/05/08 02:47:22;;;;;;;;;;;;;;;16.34;60.81;97087.47;4225510;27;5715;-66
2022/05/08 02:49:24;;;;;;;;;;;;;;;16.31;60.66;97088.72;4220791;28;5687;-66
2022/05/08 02:51:25;;;;;;;;;;;;;;;16.29;60.88;97083.59;4219378;28;5671;-66
2022/05/08 02:53:27;;;;;;;;;;;;;;;16.33;60.78;97089.31;4236987;28;5701;-66
2022/05/08 03:00:11;;;;;;;;;;;;;;;16.30;60.98;97089.75;4237235;27;5645;-66
2022/05/08 03:02:12;;;;;;;;;;;;;;;16.29;61.11;97096.94;4229320;28;5662;-66
2022/05/08 03:04:14;;;;;;;;;;;;;;;16.28;61.05;97095.31;4237574;27;5650;-66
2022/05/08 03:06:16;;;;;;;;;;;;;;;16.26;60.89;97085.91;4237001;27;5677;-66
2022/05/08 03:08:19;;;;;;;;;;;;;;;16.24;61.11;97088.78;4202547;28;5769;-66
2022/05/08 03:10:20;;;;;;;;;;;;;;;16.23;61.23;97087.16;4223381;28;5881;-66
2022/05/08 03:12:23;;;;;;;;;;;;;;;16.20;61.03;97090.28;4235268;28;7732;-66
2022/05/08 03:14:24;;;;;;;;;;;;;;;16.19;61.30;97085.97;4237583;28;6331;-66
2022/05/08 03:16:28;;;;;;;;;;;;;;;16.18;61.44;97095.00;4221634;27;5671;-66
2022/05/08 03:18:30;;;;;;;;;;;;;;;16.15;61.39;97090.13;4223206;28;5769;-66
2022/05/08 03:20:32;;;;;;;;;;;;;;;16.15;61.64;97078.63;4236451;28;5849;-66
2022/05/08 03:22:33;;;;;;;;;;;;;;;16.15;61.60;97082.13;4223968;28;5761;-66
2022/05/08 03:24:35;;;;;;;;;;;;;;;16.15;61.53;97089.31;4220133;28;5654;-66
2022/05/08 03:26:37;;;;;;;;;;;;;;;16.15;61.54;97087.44;4220650;28;5667;-66
2022/05/08 03:28:38;;;;;;;;;;;;;;;16.13;61.66;97076.19;4219237;28;5682;-66
2022/05/08 03:30:40;;;;;;;;;;;;;;;16.13;61.68;97084.19;4227452;28;5662;-66
2022/05/08 03:32:42;;;;;;;;;;;;;;;16.13;61.83;97080.72;4237448;27;5646;-67
2022/05/08 03:34:44;;;;;;;;;;;;;;;16.14;61.65;97077.00;4224580;28;5652;-67
2022/05/08 03:36:45;;;;;;;;;;;;;;;16.15;61.50;97078.63;4237419;28;5736;-67
2022/05/08 03:38:47;;;;;;;;;;;;;;;16.12;61.66;97074.56;4237037;27;5701;-67
2022/05/08 03:40:49;;;;;;;;;;;;;;;16.11;61.72;97088.13;4236543;28;5103;-67
2022/05/08 03:42:50;;;;;;;;;;;;;;;16.10;61.71;97081.97;4237129;28;5172;-67
2022/05/08 03:44:53;;;;;;;;;;;;;;;16.07;61.74;97081.56;4236553;28;5796;-67
2022/05/08 03:46:54;;;;;;;;;;;;;;;16.05;61.75;97084.47;4228202;28;5565;-67
2022/05/08 03:48:56;;;;;;;;;;;;;;;16.05;61.83;97083.66;4218141;28;7690;-67
2022/05/08 03:50:58;;;;;;;;;;;;;;;16.03;61.87;97078.53;4220451;28;5735;-67
2022/05/08 03:53:02;;;;;;;;;;;;;;;16.03;62.00;97078.53;4219808;28;5810;-67
2022/05/08 03:55:04;;;;;;;;;;;;;;;16.06;62.08;97078.09;4236245;28;5745;-67
2022/05/08 03:57:06;;;;;;;;;;;;;;;16.06;62.01;97075.44;4236857;28;5638;-67
2022/05/08 03:59:09;;;;;;;;;;;;;;;16.08;61.90;97075.22;4236787;28;5642;-67
2022/05/08 04:01:11;;;;;;;;;;;;;;;16.08;61.65;97064.53;4228096;28;5736;-67
2022/05/08 04:03:12;;;;;;;;;;;;;;;16.09;61.79;97072.34;4235242;28;7671;-67
2022/05/08 04:05:15;;;;;;;;;;;;;;;16.11;61.69;97072.13;4236266;27;5782;-67
2022/05/08 04:07:17;;;;;;;;;;;;;;;16.09;61.62;97075.00;4236906;28;5654;-67
2022/05/08 04:09:18;;;;;;;;;;;;;;;16.09;61.78;97074.19;4235823;28;5713;-67
2022/05/08 04:11:20;;;;;;;;;;;;;;;16.05;61.94;97076.47;4225254;27;5671;-67
2022/05/08 04:13:21;;;;;;;;;;;;;;;16.01;61.94;97075.28;4219917;28;5683;-67
2022/05/08 04:17:44;;;;;;;;;;;;;;;15.98;61.89;97076.56;4219588;28;5751;-67
2022/05/08 04:19:48;;;;;;;;;;;;;;;15.95;61.95;97076.97;4219425;28;5668;-67
2022/05/08 04:24:16;;;;;;;;;;;;;;;15.95;62.09;97084.16;4235363;28;5809;-67
2022/05/08 04:24:17;;;;;;;;;;;;;;;15.92;62.20;97079.28;4236110;27;6328;-67
2022/05/08 04:26:19;;;;;;;;;;;;;;;15.88;62.17;97076.25;4235906;27;5650;-67
2022/05/08 04:28:21;;;;;;;;;;;;;;;15.89;61.99;97085.06;4236263;28;5638;-67
2022/05/08 04:30:23;;;;;;;;;;;;;;;15.88;62.16;97094.09;4235676;28;5785;-67
2022/05/08 04:32:25;;;;;;;;;;;;;;;15.85;62.20;97089.97;4235971;27;5751;-67
2022/05/08 04:34:26;;;;;;;;;;;;;;;15.89;62.09;97093.06;4223397;28;5699;-67
2022/05/08 04:36:29;;;;;;;;;;;;;;;15.91;62.12;97089.13;4219357;28;5743;-67
2022/05/08 04:38:30;;;;;;;;;;;;;;;15.90;61.99;97094.69;4218879;28;5675;-67
2022/05/08 04:40:32;;;;;;;;;;;;;;;15.87;62.08;97103.13;4218994;28;5666;-67
2022/05/08 04:42:34;;;;;;;;;;;;;;;15.86;62.05;97099.66;4219261;28;5754;-67
2022/05/08 04:44:35;;;;;;;;;;;;;;;15.82;62.13;97101.09;4219372;28;5663;-67
2022/05/08 04:46:37;;;;;;;;;;;;;;;15.82;62.22;97100.28;4222534;28;5631;-67
2022/05/08 04:48:41;;;;;;;;;;;;;;;15.82;62.23;97094.94;4232955;28;5822;-67
2022/05/08 04:50:43;;;;;;;;;;;;;;;15.83;62.25;97102.72;4226616;27;5861;-67
2022/05/08 04:52:45;;;;;;;;;;;;;;;15.85;62.20;97105.97;4235401;28;7692;-67
2022/05/08 04:54:46;;;;;;;;;;;;;;;15.90;62.14;97108.00;4221362;27;5664;-67
2022/05/08 04:56:48;;;;;;;;;;;;;;;15.95;62.18;97111.63;4227466;28;5874;-67
2022/05/08 04:58:50;;;;;;;;;;;;;;;15.97;61.89;97106.94;4223554;28;5925;-67
2022/05/08 05:00:52;;;;;;;;;;;;;;;15.98;62.08;97113.06;4223556;28;5658;-67
2022/05/08 05:02:53;;;;;;;;;;;;;;;16.00;61.96;97116.31;4228435;28;5761;-67
2022/05/08 05:04:57;;;;;;;;;;;;;;;16.00;61.97;97109.13;4228762;28;5112;-67
2022/05/08 05:06:59;;;;;;;;;;;;;;;16.02;61.92;97107.06;4233917;28;5120;-67
2022/05/08 05:09:01;;;;;;;;;;;;;;;16.04;62.04;97114.84;4235333;28;5650;-67
2022/05/08 05:11:08;;;;;;;;;;;;;;;16.07;61.78;97114.41;4234300;28;5747;-67
2022/05/08 05:13:10;;;;;;;;;;;;;;;16.14;61.73;97117.00;4234120;27;5901;-67
2022/05/08 05:15:12;;;;;;;;;;;;;;;16.17;61.80;97111.22;4231617;27;5662;-67
2022/05/08 05:17:14;;;;;;;;;;;;;;;16.19;61.35;97117.16;4230498;28;5657;-67
2022/05/08 05:19:15;;;;;;;;;;;;;;;16.18;61.55;97121.66;4234916;28;5654;-67
2022/05/08 05:21:17;;;;;;;;;;;;;;;16.19;61.53;97117.97;4231840;28;6477;-67
2022/05/08 05:23:18;;;;;;;;;;;;;;;16.22;61.49;97114.06;4226586;27;5666;-67
2022/05/08 05:25:20;;;;;;;;;;;;;;;16.24;61.50;97118.13;4230323;27;5654;-67
2022/05/08 05:27:22;;;;;;;;;;;;;;;16.23;61.61;97119.19;4229302;28;5790;-67
2022/05/08 05:29:24;;;;;;;;;;;;;;;16.21;61.53;97113.25;4220381;28;5781;-67
2022/05/08 05:31:26;;;;;;;;;;;;;;;16.23;61.38;97119.19;4211782;28;5687;-77
2022/05/08 05:33:28;;;;;;;;;;;;;;;16.26;61.27;97124.06;4230500;28;5696;-77
2022/05/08 05:35:29;;;;;;;;;;;;;;;16.27;61.36;97122.22;4226112;28;5788;-77
2022/05/08 05:37:31;;;;;;;;;;;;;;;16.28;61.23;97119.31;4233296;28;5654;-77
2022/05/08 05:39:33;;;;;;;;;;;;;;;16.30;61.51;97129.75;4233932;28;5732;-77
2022/05/08 05:41:34;;;;;;;;;;;;;;;16.34;61.27;97125.63;4231037;28;6324;-77
2022/05/08 05:43:36;;;;;;;;;;;;;;;16.41;61.36;97122.88;4235208;28;5658;-77
2022/05/08 05:45:39;;;;;;;;;;;;;;;16.49;61.18;97122.59;4231891;28;5653;-75
2022/05/08 05:47:50;;;;;;;;;;;;;;;16.63;60.75;97126.72;4219363;27;5668;-75
2022/05/08 05:49:51;;;;;;;;;;;;;;;16.79;60.59;97128.84;4232037;28;5837;-75
2022/05/08 05:51:54;;;;;;;;;;;;;;;16.87;60.50;97125.88;4222330;28;5813;-74
2022/05/08 05:53:55;;;;;;;;;;;;;;;16.95;60.29;97132.75;4224741;28;5671;-75
2022/05/08 05:55:58;;;;;;;;;;;;;;;17.03;60.18;97123.63;4226738;27;5817;-75
2022/05/08 05:58:00;;;;;;;;;;;;;;;17.10;60.04;97129.66;4230303;27;5853;-74
2022/05/08 06:00:04;;;;;;;;;;;;;;;17.19;59.97;97131.00;4229575;27;5645;-74
2022/05/08 06:02:06;;;;;;;;;;;;;;;17.24;59.77;97128.47;4232996;28;5729;-74
2022/05/08 06:04:07;;;;;;;;;;;;;;;17.24;59.75;97128.47;4234891;28;5650;-73
2022/05/08 06:06:09;;;;;;;;;;;;;;;17.10;59.55;97119.81;4234757;27;5891;-74
2022/05/08 06:08:11;;;;;;;;;;;;;;;17.04;59.86;97131.41;4233275;28;5676;-74
2022/05/08 06:10:14;;;;;;;;;;;;;;;17.03;59.96;97126.28;4224367;27;5778;-74
2022/05/08 06:12:16;;;;;;;;;;;;;;;17.11;59.80;97136.66;4217517;28;5667;-74
2022/05/08 06:14:18;;;;;;;;;;;;;;;17.21;59.66;97126.22;4217745;28;5653;-74
2022/05/08 06:16:20;;;;;;;;;;;;;;;17.28;59.50;97132.31;4218129;28;5782;-74
2022/05/08 06:18:22;;;;;;;;;;;;;;;17.34;59.31;97127.94;4217802;28;5706;-74
2022/05/08 06:20:23;;;;;;;;;;;;;;;17.27;59.36;97130.69;4217579;28;5759;-74
2022/05/08 06:22:25;;;;;;;;;;;;;;;17.32;59.37;97128.13;4217540;28;5656;-74
2022/05/08 06:24:27;;;;;;;;;;;;;;;17.42;59.11;97130.25;4217464;28;5687;-74
2022/05/08 06:26:29;;;;;;;;;;;;;;;17.46;59.08;97134.94;4199916;28;5733;-74
2022/05/08 06:28:31;;;;;;;;;;;;;;;17.55;58.92;97135.41;4217678;28;5077;-75
2022/05/08 06:30:33;;;;;;;;;;;;;;;17.64;58.79;97130.53;4217854;28;5763;-74
2022/05/08 06:32:35;;;;;;;;;;;;;;;17.67;58.73;97136.25;4217391;28;5679;-75
2022/05/08 06:34:58;;;;;;;;;;;;;;;17.66;58.25;97136.47;4232665;28;5818;-75
2022/05/08 06:37:00;;;;;;;;;;;;;;;17.62;58.57;97143.31;4233462;28;5649;-75
2022/05/08 06:39:02;;;;;;;;;;;;;;;17.64;58.50;97141.22;4234218;28;5657;-75
2022/05/08 06:41:04;;;;;;;;;;;;;;;17.64;58.57;97141.22;4234684;28;5901;-75
2022/05/08 06:43:07;;;;;;;;;;;;;;;17.63;58.47;97137.75;4234737;27;5653;-75
2022/05/08 06:45:09;;;;;;;;;;;;;;;17.67;58.38;97151.50;4234439;28;5713;-75
2022/05/08 06:47:10;;;;;;;;;;;;;;;17.59;58.30;97144.59;4233061;28;5662;-75
2022/05/08 06:49:12;;;;;;;;;;;;;;;17.55;58.24;97154.09;4234443;28;5642;-74
2022/05/08 06:51:14;;;;;;;;;;;;;;;17.53;58.39;97150.03;4234352;28;5718;-75
2022/05/08 06:53:15;;;;;;;;;;;;;;;17.53;58.32;97139.34;4232083;27;6664;-74
2022/05/08 06:55:19;;;;;;;;;;;;;;;17.49;58.37;97146.19;4217576;28;5791;-75
2022/05/08 06:57:20;;;;;;;;;;;;;;;17.48;58.39;97141.91;4217682;28;5660;-74
2022/05/08 07:01:43;;;;;;;;;;;;;;;17.41;58.29;97145.47;4222290;28;5755;-74
2022/05/08 07:03:45;;;;;;;;;;;;;;;17.40;58.35;97146.53;4216246;28;5781;-75
2022/05/08 07:05:47;;;;;;;;;;;;;;;17.43;58.20;97151.41;4231204;28;6339;-74
2022/05/08 07:07:49;;;;;;;;;;;;;;;17.42;58.41;97143.63;4234136;28;5658;-74
2022/05/08 07:09:51;;;;;;;;;;;;;;;17.39;58.36;97150.22;4233656;28;6351;-74
2022/05/08 07:11:53;;;;;;;;;;;;;;;17.39;58.48;97136.88;4233827;28;5733;-74
2022/05/08 07:14:01;;;;;;;;;;;;;;;17.42;58.45;97144.44;4234660;28;5674;-74
2022/05/08 07:16:03;;;;;;;;;;;;;;;17.47;58.39;97149.09;4233156;28;5839;-74
2022/05/08 07:18:05;;;;;;;;;;;;;;;17.45;58.29;97152.00;4234293;27;5642;-74
2022/05/08 07:20:08;;;;;;;;;;;;;;;17.42;58.49;97149.78;4234309;28;5642;-74
2022/05/08 07:22:09;;;;;;;;;;;;;;;17.43;58.40;97143.38;4233992;27;5753;-74
2022/05/08 07:24:11;;;;;;;;;;;;;;;17.44;58.34;97152.22;4233105;28;5650;-73
2022/05/08 07:26:13;;;;;;;;;;;;;;;17.41;58.49;97152.69;4237434;28;5741;-74
2022/05/08 07:28:15;;;;;;;;;;;;;;;17.41;58.55;97153.50;4237523;27;5646;-74
2022/05/08 07:30:17;;;;;;;;;;;;;;;17.38;58.46;97143.25;4237414;27;5643;-74
2022/05/08 07:32:18;;;;;;;;;;;;;;;17.35;58.74;97157.09;4236916;28;6331;-74
2022/05/08 07:36:40;;;;;;;;;;;;;;;17.43;58.84;97162.09;4237197;27;5744;-75
2022/05/08 07:38:44;;;;;;;;;;;;;;;17.50;58.47;97151.31;4236676;27;5679;-74
2022/05/08 07:40:48;;;;;;;;;;;;;;;17.51;58.50;97162.81;4237249;27;5690;-75
2022/05/08 07:42:49;;;;;;;;;;;;;;;17.44;58.28;97161.06;4237105;28;5830;-74
2022/05/08 07:44:51;;;;;;;;;;;;;;;17.38;58.49;97159.31;4219189;28;5667;-75
2022/05/08 07:46:53;;;;;;;;;;;;;;;17.42;58.69;97165.00;4236705;28;5701;-75
2022/05/08 07:48:54;;;;;;;;;;;;;;;17.49;58.53;97165.72;4219955;28;5687;-75
2022/05/08 07:50:59;;;;;;;;;;;;;;;17.55;58.29;97175.50;4219761;28;6353;-75
2022/05/08 07:53:00;;;;;;;;;;;;;;;17.58;58.38;97169.72;4219807;28;5688;-74
2022/05/08 07:55:03;;;;;;;;;;;;;;;17.64;58.19;97171.44;4235639;28;5739;-75
2022/05/08 07:57:04;;;;;;;;;;;;;;;17.65;58.08;97165.06;4237025;27;5646;-75
2022/05/08 07:59:08;;;;;;;;;;;;;;;17.64;58.21;97168.78;4236856;27;5782;-74
2022/05/08 08:01:10;;;;;;;;;;;;;;;17.64;58.00;97167.97;4237028;27;5634;-75
2022/05/08 08:03:12;;;;;;;;;;;;;;;17.63;58.05;97169.00;4236948;27;5079;-75
2022/05/08 08:05:13;;;;;;;;;;;;;;;17.62;57.97;97165.53;4235310;28;5753;-74
2022/05/08 08:07:15;;;;;;;;;;;;;;;17.65;58.12;97170.41;4236548;28;5654;-75
2022/05/08 08:09:17;;;;;;;;;;;;;;;17.62;58.10;97165.53;4235835;28;5650;-75
2022/05/08 08:11:18;;;;;;;;;;;;;;;17.63;58.11;97163.66;4236585;27;5674;-76
2022/05/08 08:13:20;;;;;;;;;;;;;;;17.66;57.95;97165.88;4219447;27;5848;-75
2022/05/08 08:15:22;;;;;;;;;;;;;;;17.69;58.05;97154.78;4219597;28;5687;-74
2022/05/08 08:17:24;;;;;;;;;;;;;;;17.71;57.92;97163.38;4219653;28;5687;-74
2022/05/08 08:19:26;;;;;;;;;;;;;;;17.73;57.97;97167.44;4219561;28;5659;-75
2022/05/08 08:21:28;;;;;;;;;;;;;;;17.71;57.73;97163.38;4219330;28;5678;-75
2022/05/08 08:23:30;;;;;;;;;;;;;;;17.72;57.96;97165.00;4218125;28;5667;-75
2022/05/08 08:25:32;;;;;;;;;;;;;;;17.78;57.79;97168.59;4218457;28;5666;-75
2022/05/08 08:27:33;;;;;;;;;;;;;;;17.81;57.79;97168.97;4218011;28;5778;-75
2022/05/08 08:29:35;;;;;;;;;;;;;;;17.84;57.64;97165.84;4218018;28;5663;-74
2022/05/08 08:31:37;;;;;;;;;;;;;;;17.88;57.64;97169.69;4219142;28;5738;-75
2022/05/08 08:33:40;;;;;;;;;;;;;;;17.93;57.72;97160.97;4222180;28;5662;-74
2022/05/08 08:35:41;;;;;;;;;;;;;;;18.00;57.65;97165.16;4234644;27;5654;-75
2022/05/08 08:37:43;;;;;;;;;;;;;;;18.06;57.59;97165.28;4236130;27;5787;-75
2022/05/08 08:39:45;;;;;;;;;;;;;;;18.05;57.44;97169.81;4235798;27;5683;-75
2022/05/08 08:41:55;;;;;;;;;;;;;;;18.00;57.47;97162.47;4234965;28;5670;-75
2022/05/08 08:48:41;;;;;;;;;;;;;;;18.08;57.56;97160.53;4220648;28;5881;-75
2022/05/08 08:50:46;;;;;;;;;;;;;;;18.06;57.49;97159.94;4219082;28;5762;-76
2022/05/08 08:52:48;;;;;;;;;;;;;;;18.10;57.48;97163.78;4219322;28;6467;-74
2022/05/08 08:54:49;;;;;;;;;;;;;;;18.16;57.50;97170.88;4233586;28;5792;-75
2022/05/08 08:56:51;;;;;;;;;;;;;;;18.21;57.19;97157.63;4234991;28;5702;-72
2022/05/08 08:58:59;;;;;;;;;;;;;;;18.21;57.20;97171.00;4235741;27;5657;-74
2022/05/08 09:01:01;;;;;;;;;;;;;;;18.20;56.79;97178.22;4234637;28;5080;-74
2022/05/08 09:03:03;;;;;;;;;;;;;;;18.21;57.03;97165.63;4235733;27;6428;-75
2022/05/08 09:05:07;;;;;;;;;;;;;;;18.31;56.97;97158.66;4235943;28;5642;-74
2022/05/08 09:07:42;;;;;;;;;;;;;;;18.39;56.86;97165.53;4235650;28;5840;-73
2022/05/08 09:09:43;;;;;;;;;;;;;;;18.40;56.52;97174.38;4231403;27;6450;-75
2022/05/08 09:11:45;;;;;;;;;;;;;;;18.43;56.70;97169.38;4233332;27;5670;-74
2022/05/08 09:13:51;;;;;;;;;;;;;;;18.49;56.51;97181.00;4218503;28;5659;-75
2022/05/08 09:16:07;;;;;;;;;;;;;;;18.52;56.17;97175.19;4217453;28;5789;-75
2022/05/08 09:18:11;;;;;;;;;;;;;;;18.47;56.44;97172.41;4218595;28;6349;-75
2022/05/08 09:20:29;;;;;;;;;;;;;;;18.55;56.29;97174.72;4218464;28;5754;-75
2022/05/08 09:22:31;;;;;;;;;;;;;;;18.61;56.24;97173.78;4217105;28;5730;-75
2022/05/08 09:24:34;;;;;;;;;;;;;;;18.66;56.20;97173.09;4218099;28;5738;-75
2022/05/08 09:26:36;;;;;;;;;;;;;;;18.70;55.94;97182.31;4218594;28;5663;-75
2022/05/08 09:28:42;;;;;;;;;;;;;;;18.73;55.85;97176.47;4218488;28;5782;-74
2022/05/08 09:30:53;;;;;;;;;;;;;;;18.76;55.63;97170.63;4218210;28;5687;-74
2022/05/08 09:32:55;;;;;;;;;;;;;;;18.77;55.44;97172.25;4218315;28;5761;-75
2022/05/08 09:34:57;;;;;;;;;;;;;;;18.79;55.33;97175.53;4233134;28;5721;-75
2022/05/08 09:37:06;;;;;;;;;;;;;;;18.83;55.48;97190.09;4235273;28;5649;-74
2022/05/08 09:39:09;;;;;;;;;;;;;;;18.84;55.29;97176.44;4234974;27;5755;-75
2022/05/08 09:41:13;;;;;;;;;;;;;;;18.86;55.04;97176.22;4235181;27;5718;-76
2022/05/08 09:43:30;;;;;;;;;;;;;;;18.86;55.01;97181.56;4234065;28;5759;-75
2022/05/08 09:45:32;;;;;;;;;;;;;;;18.90;54.70;97186.22;4216956;28;5774;-75
2022/05/08 09:47:42;;;;;;;;;;;;;;;18.89;54.61;97179.22;4228579;28;5834;-75
2022/05/08 09:49:46;;;;;;;;;;;;;;;18.91;54.59;97181.66;4218043;28;5671;-74
2022/05/08 09:51:48;;;;;;;;;;;;;;;18.92;54.34;97169.94;4217968;28;5708;-75
2022/05/08 09:53:50;;;;;;;;;;;;;;;18.96;54.34;97184.47;4224311;28;5786;-75
2022/05/08 09:55:53;;;;;;;;;;;;;;;19.02;54.47;97185.38;4235110;28;5671;-74
2022/05/08 09:57:55;;;;;;;;;;;;;;;19.02;54.31;97186.19;4234965;28;5658;-74
2022/05/08 09:59:58;;;;;;;;;;;;;;;19.07;54.07;97199.69;4234883;28;5731;-76
2022/05/08 10:02:03;;;;;;;;;;;;;;;19.08;54.15;97190.59;4234841;27;5650;-74
2022/05/08 10:04:05;;;;;;;;;;;;;;;19.10;54.04;97188.50;4233994;28;5744;-75
2022/05/08 10:06:06;;;;;;;;;;;;;;;19.15;53.92;97193.97;4234811;27;5690;-75
2022/05/08 10:08:09;;;;;;;;;;;;;;;19.14;53.65;97189.66;4234713;28;5661;-75
2022/05/08 10:14:53;;;;;;;;;;;;;;;19.22;53.43;97196.50;4217852;28;5754;-75
2022/05/08 10:17:02;;;;;;;;;;;;;;;19.25;53.27;97195.19;4217725;28;5711;-74
2022/05/08 10:19:19;;;;;;;;;;;;;;;19.27;53.04;97190.44;4217694;28;5762;-75
2022/05/08 10:21:21;;;;;;;;;;;;;;;19.27;53.27;97187.75;4217568;28;5750;-76
2022/05/08 10:23:41;;;;;;;;;;;;;;;19.31;53.15;97188.91;4216289;28;5671;-75
2022/05/08 10:26:12;;;;;;;;;;;;;;;19.32;52.81;97185.97;4217700;28;5762;-75
2022/05/08 10:28:14;;;;;;;;;;;;;;;19.34;52.63;97194.59;4217687;28;5756;-76
2022/05/08 10:30:19;;;;;;;;;;;;;;;19.33;52.68;97192.16;4216723;28;5656;-75
2022/05/08 10:32:33;;;;;;;;;;;;;;;19.31;52.26;97199.63;4216356;28;5742;-75
2022/05/08 10:34:39;;;;;;;;;;;;;;;19.35;52.45;97190.84;4229411;28;5654;-75
2022/05/08 10:37:10;;;;;;;;;;;;;;;19.42;52.62;97185.34;4234879;28;5642;-74
2022/05/08 10:39:45;;;;;;;;;;;;;;;19.49;52.43;97191.41;4232950;28;6521;-74
2022/05/08 10:41:49;;;;;;;;;;;;;;;19.53;52.57;97192.53;4232014;28;6331;-74
2022/05/08 10:43:50;;;;;;;;;;;;;;;19.51;52.08;97194.66;4234495;28;5661;-73
2022/05/08 10:45:53;;;;;;;;;;;;;;;19.49;52.10;97192.22;4233317;28;5756;-74
2022/05/08 10:47:55;;;;;;;;;;;;;;;19.56;52.22;97199.31;4225637;27;5686;-74
2022/05/08 10:49:56;;;;;;;;;;;;;;;19.56;52.06;97191.28;4217743;28;5663;-75
2022/05/08 10:52:07;;;;;;;;;;;;;;;19.60;52.11;97197.81;4217357;28;5671;-74
2022/05/08 10:54:10;;;;;;;;;;;;;;;19.60;51.68;97193.25;4225239;28;6316;-74
2022/05/08 10:56:13;;;;;;;;;;;;;;;19.61;51.86;97194.06;4234708;28;5682;-74
2022/05/08 10:58:15;;;;;;;;;;;;;;;19.63;51.61;97192.75;4216903;28;5758;-74
2022/05/08 11:00:18;;;;;;;;;;;;;;;19.63;51.35;97198.13;4237925;28;5805;-75
2022/05/08 11:02:43;;;;;;;;;;;;;;;19.66;51.28;97184.22;4236303;28;5658;-74
2022/05/08 11:04:51;;;;;;;;;;;;;;;19.69;51.10;97197.16;4237755;27;5657;-74
2022/05/08 11:06:53;;;;;;;;;;;;;;;19.69;51.33;97190.97;4236106;28;5756;-74
2022/05/08 11:08:59;;;;;;;;;;;;;;;19.69;50.89;97194.47;4237284;27;6347;-74
2022/05/08 11:11:10;;;;;;;;;;;;;;;19.71;51.24;97195.06;4237069;28;5646;-74
2022/05/08 11:13:12;;;;;;;;;;;;;;;19.76;51.20;97187.09;4223020;27;5808;-73